createdAt,value
2023-09-10T00:02:34.056Z,20.10
2023-09-10T00:05:21.038Z,20.00
2023-09-10T00:08:09.814Z,20.00
2023-09-10T00:10:57.912Z,19.90
2023-09-10T00:13:45.747Z,19.90
2023-09-10T00:16:33.480Z,19.90
2023-09-10T00:19:20.631Z,19.80
2023-09-10T00:22:07.720Z,19.80
2023-09-10T00:24:56.422Z,19.80
2023-09-10T00:27:43.791Z,19.80
2023-09-10T00:30:31.220Z,19.70
2023-09-10T00:33:19.469Z,19.70
2023-09-10T00:36:10.148Z,19.70
2023-09-10T00:38:57.372Z,19.70
2023-09-10T00:41:47.402Z,19.70
2023-09-10T00:44:34.778Z,19.60
2023-09-10T00:47:21.804Z,19.60
2023-09-10T00:50:11.131Z,19.60
2023-09-10T00:53:01.791Z,19.60
2023-09-10T00:55:49.771Z,19.60
2023-09-10T00:58:38.931Z,19.50
2023-09-10T01:01:27.066Z,19.50
2023-09-10T01:04:15.186Z,19.40
2023-09-10T01:07:03.886Z,19.40
2023-09-10T01:09:51.381Z,19.40
2023-09-10T01:12:45.687Z,19.40
2023-09-10T01:15:40.422Z,19.40
2023-09-10T01:18:33.455Z,19.40
2023-09-10T01:21:43.927Z,19.40
2023-09-10T01:24:46.516Z,19.30
2023-09-10T01:27:33.957Z,19.30
2023-09-10T01:30:21.550Z,19.20
2023-09-10T01:33:20.123Z,19.20
2023-09-10T01:36:13.908Z,19.20
2023-09-10T01:39:09.142Z,19.20
2023-09-10T01:41:58.987Z,19.20
2023-09-10T01:44:47.676Z,19.10
2023-09-10T01:47:35.068Z,19.10
2023-09-10T01:50:22.640Z,19.10
2023-09-10T01:53:09.850Z,19.00
2023-09-10T01:55:57.647Z,19.00
2023-09-10T01:58:46.945Z,19.00
2023-09-10T02:01:34.802Z,19.00
2023-09-10T02:04:23.705Z,19.00
2023-09-10T02:07:10.910Z,19.00
2023-09-10T02:09:59.589Z,18.90
2023-09-10T02:12:46.779Z,18.90
2023-09-10T02:15:35.137Z,18.90
2023-09-10T02:18:23.551Z,18.80
2023-09-10T02:21:11.930Z,18.90
2023-09-10T02:23:59.985Z,18.80
2023-09-10T02:26:47.252Z,18.80
2023-09-10T02:29:34.569Z,18.80
2023-09-10T02:32:24.279Z,18.70
2023-09-10T02:35:11.374Z,18.70
2023-09-10T02:37:58.355Z,18.70
2023-09-10T02:40:45.902Z,18.70
2023-09-10T02:43:33.439Z,18.60
2023-09-10T02:46:20.381Z,18.70
2023-09-10T02:49:08.888Z,18.60
2023-09-10T02:51:56.359Z,18.60
2023-09-10T02:54:43.618Z,18.60
2023-09-10T02:57:30.695Z,18.50
2023-09-10T03:00:21.014Z,18.60
2023-09-10T03:03:08.292Z,18.50
2023-09-10T03:05:57.030Z,18.50
2023-09-10T03:08:45.994Z,18.50
2023-09-10T03:11:35.266Z,18.50
2023-09-10T03:14:22.690Z,18.50
2023-09-10T03:17:12.295Z,18.40
2023-09-10T03:19:59.149Z,18.40
2023-09-10T03:22:47.756Z,18.40
2023-09-10T03:25:38.247Z,18.40
2023-09-10T03:28:25.817Z,18.40
2023-09-10T03:31:12.803Z,18.30
2023-09-10T03:33:59.782Z,18.30
2023-09-10T03:36:47.596Z,18.30
2023-09-10T03:39:37.943Z,18.30
2023-09-10T03:42:26.049Z,18.20
2023-09-10T03:45:13.241Z,18.30
2023-09-10T03:48:00.788Z,18.20
2023-09-10T03:50:47.982Z,18.20
2023-09-10T03:53:35.427Z,18.20
2023-09-10T03:56:25.416Z,18.20
2023-09-10T03:59:12.864Z,18.20
2023-09-10T04:02:01.444Z,18.10
2023-09-10T04:04:49.006Z,18.10
2023-09-10T04:07:36.446Z,18.10
2023-09-10T04:10:23.559Z,18.10
2023-09-10T04:13:12.721Z,18.10
2023-09-10T04:15:59.929Z,18.00
2023-09-10T04:18:48.040Z,18.00
2023-09-10T04:21:36.431Z,18.00
2023-09-10T04:24:24.854Z,18.00
2023-09-10T04:27:12.443Z,18.00
2023-09-10T04:30:01.072Z,18.00
2023-09-10T04:32:48.295Z,18.00
2023-09-10T04:35:35.285Z,17.90
2023-09-10T04:38:22.408Z,17.90
2023-09-10T04:41:09.454Z,17.90
2023-09-10T04:43:56.756Z,17.90
2023-09-10T04:46:45.529Z,17.80
2023-09-10T04:49:33.266Z,17.80
2023-09-10T04:52:21.020Z,17.80
2023-09-10T04:55:09.082Z,17.80
2023-09-10T04:57:56.319Z,17.80
2023-09-10T05:00:43.904Z,17.90
2023-09-10T05:03:33.369Z,17.80
2023-09-10T05:06:21.967Z,17.80
2023-09-10T05:09:09.994Z,17.80
2023-09-10T05:11:58.940Z,17.80
2023-09-10T05:14:46.060Z,17.90
2023-09-10T05:17:33.373Z,17.90
2023-09-10T05:20:21.957Z,17.90
2023-09-10T05:23:09.182Z,17.90
2023-09-10T05:25:56.606Z,18.00
2023-09-10T05:28:46.920Z,18.00
2023-09-10T05:31:35.082Z,18.00
2023-09-10T05:34:22.112Z,18.10
2023-09-10T05:37:10.926Z,18.10
2023-09-10T05:39:58.083Z,18.20
2023-09-10T05:42:46.773Z,18.20
2023-09-10T05:45:35.711Z,18.30
2023-09-10T05:48:23.553Z,18.30
2023-09-10T05:51:11.203Z,18.40
2023-09-10T05:54:00.254Z,18.40
2023-09-10T05:56:48.218Z,18.50
2023-09-10T05:59:35.448Z,18.60
2023-09-10T06:02:23.224Z,18.70
2023-09-10T06:05:11.307Z,18.70
2023-09-10T06:07:59.228Z,18.80
2023-09-10T06:10:47.955Z,18.90
2023-09-10T06:13:35.246Z,19.00
2023-09-10T06:16:22.913Z,19.10
2023-09-10T06:19:11.201Z,19.20
2023-09-10T06:21:58.483Z,19.30
2023-09-10T06:24:45.496Z,19.50
2023-09-10T06:27:34.069Z,19.60
2023-09-10T06:30:21.388Z,19.70
2023-09-10T06:33:09.773Z,19.90
2023-09-10T06:35:57.746Z,20.00
2023-09-10T06:38:48.990Z,20.20
2023-09-10T06:41:37.240Z,20.30
2023-09-10T06:44:26.111Z,20.50
2023-09-10T06:47:13.725Z,20.60
2023-09-10T06:50:01.217Z,20.80
2023-09-10T06:52:48.342Z,20.90
2023-09-10T06:55:35.486Z,21.10
2023-09-10T06:58:22.764Z,21.20
2023-09-10T07:01:11.184Z,21.40
2023-09-10T07:03:59.726Z,21.50
2023-09-10T07:06:48.270Z,21.70
2023-09-10T07:09:35.428Z,21.80
2023-09-10T07:12:22.719Z,22.00
2023-09-10T07:15:10.272Z,22.10
2023-09-10T07:17:58.898Z,22.30
2023-09-10T07:20:46.517Z,22.50
2023-09-10T07:23:33.918Z,22.60
2023-09-10T07:26:20.928Z,22.80
2023-09-10T07:29:08.220Z,22.90
2023-09-10T07:31:55.961Z,23.10
2023-09-10T07:34:44.674Z,23.20
2023-09-10T07:37:31.952Z,23.40
2023-09-10T07:40:19.182Z,23.60
2023-09-10T07:43:06.528Z,23.70
2023-09-10T07:45:53.784Z,23.90
2023-09-10T07:48:41.221Z,24.00
2023-09-10T07:51:29.938Z,24.20
2023-09-10T07:54:17.534Z,24.30
2023-09-10T07:57:05.642Z,24.50
2023-09-10T07:59:52.870Z,24.60
2023-09-10T08:02:40.363Z,24.80
2023-09-10T08:05:27.466Z,25.00
2023-09-10T08:08:15.866Z,25.10
2023-09-10T08:11:03.199Z,25.30
2023-09-10T08:13:50.627Z,25.40
2023-09-10T08:16:38.645Z,25.60
2023-09-10T08:19:25.535Z,25.80
2023-09-10T08:22:12.776Z,26.00
2023-09-10T08:25:01.157Z,26.10
2023-09-10T08:27:48.476Z,26.20
2023-09-10T08:30:36.381Z,26.40
2023-09-10T08:33:26.396Z,26.50
2023-09-10T08:36:13.991Z,26.70
2023-09-10T08:39:00.926Z,26.90
2023-09-10T08:41:58.876Z,27.10
2023-09-10T08:44:52.632Z,27.40
2023-09-10T08:47:41.870Z,28.00
2023-09-10T08:50:30.371Z,28.70
2023-09-10T08:53:21.699Z,29.20
2023-09-10T08:56:10.398Z,29.60
2023-09-10T08:59:00.753Z,30.10
2023-09-10T09:01:49.572Z,31.00
2023-09-10T09:04:37.086Z,32.30
2023-09-10T09:07:30.131Z,33.50
2023-09-10T09:10:23.750Z,34.40
2023-09-10T09:13:13.497Z,35.20
2023-09-10T09:16:03.094Z,35.40
2023-09-10T09:18:51.140Z,34.80
2023-09-10T09:21:40.320Z,34.00
2023-09-10T09:24:27.960Z,33.20
2023-09-10T09:27:17.296Z,32.80
2023-09-10T09:30:07.537Z,32.40
2023-09-10T09:32:57.833Z,32.10
2023-09-10T09:35:47.456Z,32.00
2023-09-10T09:38:34.639Z,32.30
2023-09-10T09:41:22.095Z,32.90
2023-09-10T09:44:10.168Z,33.30
2023-09-10T09:46:59.658Z,34.10
2023-09-10T09:49:50.680Z,34.60
2023-09-10T09:52:37.754Z,34.90
2023-09-10T09:55:24.935Z,35.70
2023-09-10T09:58:12.660Z,36.80
2023-09-10T10:01:00.953Z,37.80
2023-09-10T10:03:48.549Z,38.60
2023-09-10T10:06:48.622Z,39.10
2023-09-10T10:09:37.561Z,39.70
2023-09-10T10:12:28.386Z,40.70
2023-09-10T10:15:16.004Z,42.00
2023-09-10T10:18:06.262Z,43.10
2023-09-10T10:20:53.579Z,43.00
2023-09-10T10:23:44.450Z,42.70
2023-09-10T10:26:32.660Z,42.60
2023-09-10T10:29:21.150Z,42.20
2023-09-10T10:32:15.603Z,41.80
2023-09-10T10:35:05.501Z,41.80
2023-09-10T10:37:59.673Z,41.50
2023-09-10T10:40:49.782Z,40.70
2023-09-10T10:43:42.848Z,39.70
2023-09-10T10:46:31.839Z,38.20
2023-09-10T10:49:20.161Z,36.90
2023-09-10T10:52:10.328Z,35.70
2023-09-10T10:54:59.616Z,34.90
2023-09-10T10:57:48.777Z,34.30
2023-09-10T11:00:36.031Z,33.90
2023-09-10T11:03:23.970Z,33.50
2023-09-10T11:06:11.651Z,33.20
2023-09-10T11:08:58.668Z,32.90
2023-09-10T11:11:51.219Z,32.60
2023-09-10T11:14:53.260Z,32.40
2023-09-10T11:17:41.987Z,32.10
2023-09-10T11:20:51.018Z,32.00
2023-09-10T11:23:40.395Z,31.90
2023-09-10T11:26:32.301Z,31.80
2023-09-10T11:29:20.609Z,31.90
2023-09-10T11:32:19.181Z,32.00
2023-09-10T11:35:27.784Z,32.10
2023-09-10T11:38:15.171Z,32.10
2023-09-10T11:41:03.152Z,31.90
2023-09-10T11:43:51.906Z,31.80
2023-09-10T11:46:39.330Z,31.80
2023-09-10T11:49:27.073Z,31.80
2023-09-10T11:52:15.561Z,31.90
2023-09-10T11:55:03.242Z,32.00
2023-09-10T11:57:51.954Z,32.00
2023-09-10T12:00:43.109Z,32.10
2023-09-10T12:03:31.567Z,32.00
2023-09-10T12:06:18.816Z,32.20
2023-09-10T12:09:08.314Z,32.40
2023-09-10T12:11:56.833Z,32.50
2023-09-10T12:14:44.518Z,32.30
2023-09-10T12:17:31.971Z,32.20
2023-09-10T12:20:22.983Z,32.40
2023-09-10T12:23:11.795Z,32.50
2023-09-10T12:26:01.980Z,32.50
2023-09-10T12:28:51.336Z,32.50
2023-09-10T12:31:39.128Z,32.60
2023-09-10T12:34:27.082Z,32.70
2023-09-10T12:37:16.850Z,32.60
2023-09-10T12:40:05.951Z,32.70
2023-09-10T12:42:55.438Z,32.90
2023-09-10T12:45:42.732Z,33.10
2023-09-10T12:48:30.151Z,33.30
2023-09-10T12:51:17.565Z,33.40
2023-09-10T12:54:05.042Z,33.30
2023-09-10T12:56:53.190Z,33.10
2023-09-10T12:59:42.419Z,32.80
2023-09-10T13:02:34.522Z,32.70
2023-09-10T13:05:22.462Z,32.60
2023-09-10T13:08:10.023Z,32.50
2023-09-10T13:10:57.632Z,32.70
2023-09-10T13:13:45.135Z,32.60
2023-09-10T13:16:34.057Z,32.50
2023-09-10T13:19:21.389Z,32.70
2023-09-10T13:22:09.819Z,32.80
2023-09-10T13:24:57.021Z,32.90
2023-09-10T13:27:44.331Z,33.10
2023-09-10T13:30:31.731Z,33.20
2023-09-10T13:33:20.214Z,33.40
2023-09-10T13:36:08.076Z,33.50
2023-09-10T13:38:54.996Z,33.40
2023-09-10T13:41:42.281Z,33.20
2023-09-10T13:44:29.719Z,33.20
2023-09-10T13:47:16.787Z,32.90
2023-09-10T13:50:10.393Z,32.70
2023-09-10T13:52:57.640Z,32.60
2023-09-10T13:55:47.215Z,32.60
2023-09-10T13:58:34.543Z,32.60
2023-09-10T14:01:21.966Z,32.70
2023-09-10T14:04:09.438Z,32.70
2023-09-10T14:06:58.237Z,32.50
2023-09-10T14:09:45.769Z,32.30
2023-09-10T14:12:33.002Z,32.20
2023-09-10T14:15:20.183Z,32.10
2023-09-10T14:18:07.904Z,31.90
2023-09-10T14:20:54.933Z,31.80
2023-09-10T14:23:43.671Z,31.80
2023-09-10T14:26:30.995Z,31.90
2023-09-10T14:29:18.621Z,31.90
2023-09-10T14:32:06.858Z,31.90
2023-09-10T14:34:53.991Z,32.00
2023-09-10T14:37:41.332Z,32.00
2023-09-10T14:40:30.196Z,32.00
2023-09-10T14:43:17.121Z,32.00
2023-09-10T14:46:04.307Z,31.90
2023-09-10T14:48:52.129Z,31.80
2023-09-10T14:51:39.303Z,31.70
2023-09-10T14:54:26.333Z,31.70
2023-09-10T14:57:14.895Z,31.70
2023-09-10T15:00:02.476Z,31.70
2023-09-10T15:02:49.841Z,31.60
2023-09-10T15:05:37.268Z,31.60
2023-09-10T15:08:25.574Z,31.60
2023-09-10T15:11:12.657Z,31.40
2023-09-10T15:14:01.209Z,31.40
2023-09-10T15:16:49.789Z,31.40
2023-09-10T15:19:38.156Z,31.30
2023-09-10T15:22:25.410Z,31.30
2023-09-10T15:25:12.528Z,31.20
2023-09-10T15:27:59.990Z,31.10
2023-09-10T15:30:49.083Z,31.00
2023-09-10T15:33:36.346Z,31.00
2023-09-10T15:36:23.501Z,31.10
2023-09-10T15:39:12.662Z,31.10
2023-09-10T15:42:00.122Z,31.00
2023-09-10T15:44:47.727Z,30.90
2023-09-10T15:47:37.487Z,30.80
2023-09-10T15:50:24.783Z,30.70
2023-09-10T15:53:12.506Z,30.60
2023-09-10T15:55:59.687Z,30.50
2023-09-10T15:58:46.969Z,30.40
2023-09-10T16:01:34.195Z,30.30
2023-09-10T16:04:22.941Z,30.30
2023-09-10T16:07:10.143Z,30.30
2023-09-10T16:10:00.644Z,30.30
2023-09-10T16:12:47.900Z,30.10
2023-09-10T16:15:35.813Z,30.00
2023-09-10T16:18:22.793Z,29.90
2023-09-10T16:21:11.329Z,29.80
2023-09-10T16:23:58.434Z,29.70
2023-09-10T16:26:46.028Z,29.70
2023-09-10T16:29:33.472Z,29.60
2023-09-10T16:32:20.954Z,29.40
2023-09-10T16:35:09.856Z,29.30
2023-09-10T16:37:58.718Z,29.20
2023-09-10T16:40:45.670Z,29.10
2023-09-10T16:43:32.616Z,29.00
2023-09-10T16:46:20.070Z,28.90
2023-09-10T16:49:09.556Z,28.80
2023-09-10T16:51:56.847Z,28.80
2023-09-10T16:54:45.204Z,28.60
2023-09-10T16:57:32.541Z,28.60
2023-09-10T17:00:20.212Z,28.50
2023-09-10T17:03:07.637Z,28.50
2023-09-10T17:05:55.202Z,28.40
2023-09-10T17:08:45.554Z,28.40
2023-09-10T17:11:35.007Z,28.30
2023-09-10T17:14:22.358Z,28.20
2023-09-10T17:17:09.385Z,28.20
2023-09-10T17:19:56.678Z,28.10
2023-09-10T17:22:44.755Z,28.00
2023-09-10T17:25:32.667Z,27.90
2023-09-10T17:28:21.169Z,27.80
2023-09-10T17:31:08.462Z,27.80
2023-09-10T17:33:55.903Z,27.70
2023-09-10T17:36:42.952Z,27.60
2023-09-10T17:39:30.510Z,27.60
2023-09-10T17:42:18.041Z,27.50
2023-09-10T17:45:08.376Z,27.40
2023-09-10T17:47:56.120Z,27.30
2023-09-10T17:50:43.602Z,27.10
2023-09-10T17:53:31.083Z,27.10
2023-09-10T17:56:19.326Z,27.00
2023-09-10T17:59:06.715Z,26.90
2023-09-10T18:01:55.424Z,26.80
2023-09-10T18:04:42.822Z,26.70
2023-09-10T18:07:30.580Z,26.70
2023-09-10T18:10:17.734Z,26.50
2023-09-10T18:13:05.082Z,26.40
2023-09-10T18:15:52.384Z,26.30
2023-09-10T18:18:40.720Z,26.20
2023-09-10T18:21:28.574Z,26.10
2023-09-10T18:24:15.750Z,26.00
2023-09-10T18:27:02.930Z,25.90
2023-09-10T18:29:50.194Z,25.80
2023-09-10T18:32:37.422Z,25.70
2023-09-10T18:35:26.705Z,25.60
2023-09-10T18:38:14.261Z,25.40
2023-09-10T18:41:01.525Z,25.40
2023-09-10T18:43:48.826Z,25.20
2023-09-10T18:46:38.555Z,25.20
2023-09-10T18:49:25.793Z,25.10
2023-09-10T18:52:16.453Z,25.00
2023-09-10T18:55:04.063Z,24.90
2023-09-10T18:57:51.928Z,24.80
2023-09-10T19:00:39.187Z,24.70
2023-09-10T19:03:26.851Z,24.60
2023-09-10T19:06:14.732Z,24.50
2023-09-10T19:09:03.833Z,24.40
2023-09-10T19:11:51.027Z,24.40
2023-09-10T19:14:38.323Z,24.30
2023-09-10T19:17:25.568Z,24.20
2023-09-10T19:20:13.470Z,24.10
2023-09-10T19:23:01.310Z,24.10
2023-09-10T19:25:52.748Z,24.00
2023-09-10T19:28:39.994Z,23.90
2023-09-10T19:31:32.293Z,23.80
2023-09-10T19:34:19.573Z,23.70
2023-09-10T19:37:07.065Z,23.70
2023-09-10T19:39:55.723Z,23.60
2023-09-10T19:42:44.423Z,23.50
2023-09-10T19:45:31.635Z,23.40
2023-09-10T19:48:18.868Z,23.30
2023-09-10T19:51:08.688Z,23.30
2023-09-10T19:53:56.000Z,23.20
2023-09-10T19:56:43.381Z,23.20
2023-09-10T19:59:33.081Z,23.10
2023-09-10T20:02:20.380Z,23.00
2023-09-10T20:05:08.557Z,23.00
2023-09-10T20:07:55.975Z,22.90
2023-09-10T20:10:43.555Z,22.90
2023-09-10T20:13:30.823Z,22.80
2023-09-10T20:16:19.343Z,22.80
2023-09-10T20:19:06.759Z,22.70
2023-09-10T20:21:54.336Z,22.60
2023-09-10T20:24:41.490Z,22.60
2023-09-10T20:27:30.676Z,22.50
2023-09-10T20:30:18.732Z,22.40
2023-09-10T20:33:07.706Z,22.40
2023-09-10T20:35:55.297Z,22.30
2023-09-10T20:38:42.736Z,22.30
2023-09-10T20:41:29.929Z,22.20
2023-09-10T20:44:17.158Z,22.20
2023-09-10T20:47:04.223Z,22.10
2023-09-10T20:49:53.027Z,22.00
2023-09-10T20:52:41.329Z,22.00
2023-09-10T20:55:28.704Z,22.00
2023-09-10T20:58:15.887Z,21.90
2023-09-10T21:01:03.915Z,21.80
2023-09-10T21:03:51.470Z,21.80
2023-09-10T21:06:40.932Z,21.70
2023-09-10T21:09:27.968Z,21.70
2023-09-10T21:12:14.906Z,21.70
2023-09-10T21:15:02.033Z,21.60
2023-09-10T21:17:49.282Z,21.60
2023-09-10T21:20:36.383Z,21.50
2023-09-10T21:23:28.039Z,21.50
2023-09-10T21:26:15.492Z,21.50
2023-09-10T21:29:02.575Z,21.40
2023-09-10T21:31:49.446Z,21.40
2023-09-10T21:34:36.554Z,21.30
2023-09-10T21:37:23.818Z,21.30
2023-09-10T21:40:13.985Z,21.30
2023-09-10T21:43:01.126Z,21.20
2023-09-10T21:45:48.660Z,21.10
2023-09-10T21:48:35.856Z,21.10
2023-09-10T21:51:23.023Z,21.10
2023-09-10T21:54:10.237Z,21.00
2023-09-10T21:56:59.224Z,21.00
2023-09-10T21:59:46.875Z,20.90
2023-09-10T22:02:34.166Z,20.90
2023-09-10T22:05:21.746Z,20.90
2023-09-10T22:08:09.140Z,20.90
2023-09-10T22:11:00.233Z,20.90
2023-09-10T22:13:49.034Z,20.80
2023-09-10T22:16:36.339Z,20.80
2023-09-10T22:19:23.263Z,20.70
2023-09-10T22:22:10.522Z,20.70
2023-09-10T22:24:57.793Z,20.60
2023-09-10T22:27:45.900Z,20.60
2023-09-10T22:30:35.057Z,20.60
2023-09-10T22:33:22.170Z,20.50
2023-09-10T22:36:23.489Z,20.50
2023-09-10T22:39:16.947Z,20.50
2023-09-10T22:42:04.111Z,20.40
2023-09-10T22:44:51.531Z,20.40
2023-09-10T22:47:40.030Z,20.40
2023-09-10T22:50:27.285Z,20.40
2023-09-10T22:53:14.477Z,20.40
2023-09-10T22:56:01.910Z,20.30
2023-09-10T22:58:49.579Z,20.30
2023-09-10T23:01:37.206Z,20.20
2023-09-10T23:04:25.895Z,20.20
2023-09-10T23:07:13.149Z,20.20
2023-09-10T23:10:08.298Z,20.10
2023-09-10T23:13:03.451Z,20.10
2023-09-10T23:15:50.915Z,20.00
2023-09-10T23:18:38.278Z,20.00
2023-09-10T23:21:26.847Z,20.00
2023-09-10T23:24:13.912Z,19.90
2023-09-10T23:27:03.251Z,19.90
2023-09-10T23:29:50.696Z,19.90
2023-09-10T23:32:37.677Z,19.80
2023-09-10T23:35:25.225Z,19.80
2023-09-10T23:38:13.929Z,19.70
2023-09-10T23:41:01.659Z,19.70
2023-09-10T23:43:48.975Z,19.70
2023-09-10T23:46:37.927Z,19.70
2023-09-10T23:49:26.401Z,19.60
2023-09-10T23:52:13.434Z,19.60
2023-09-10T23:55:02.238Z,19.50
2023-09-10T23:57:49.547Z,19.50
